Time;durP1;ratioP1;P1;durP2;ratioP2;P2;SDS_P1;SDS_P2;PMS_P1;PMS_P2;Temp;Humidity;BMP_temperature;BMP_pressure;BME280_temperature;BME280_humidity;BME280_pressure;Samples;Min_cycle;Max_cycle;Signal;HPM_P1;HPM_P2
2023/11/25 00:02:36;;;;;;;31.98;13.40;;;2.90;47.10;;;;;;6214534;28;20069;-87
2023/11/25 00:05:38;;;;;;;38.80;14.38;;;2.80;49.30;;;;;;6218290;28;20057;-86
2023/11/25 00:08:40;;;;;;;26.73;9.40;;;2.70;54.60;;;;;;6194913;28;20061;-86
2023/11/25 00:11:42;;;;;;;26.88;9.07;;;2.60;57.50;;;;;;6194503;28;20049;-86
2023/11/25 00:14:43;;;;;;;13.82;4.35;;;2.40;61.40;;;;;;6196784;28;20058;-87
2023/11/25 00:17:45;;;;;;;13.18;3.45;;;2.30;70.40;;;;;;6198656;28;20527;-86
2023/11/25 00:20:47;;;;;;;8.90;2.58;;;2.20;68.20;;;;;;6198194;28;20054;-86
2023/11/25 00:23:49;;;;;;;8.70;3.17;;;2.20;75.40;;;;;;6198205;28;20491;-85
2023/11/25 00:26:50;;;;;;;11.55;2.90;;;2.00;78.60;;;;;;6199534;28;20077;-85
2023/11/25 00:29:52;;;;;;;12.50;3.00;;;2.00;80.10;;;;;;6221870;28;20053;-87
2023/11/25 00:32:54;;;;;;;7.57;2.55;;;2.00;79.00;;;;;;6200115;28;20061;-87
2023/11/25 00:35:56;;;;;;;12.52;2.65;;;2.00;80.30;;;;;;6199690;28;20065;-87
2023/11/25 00:38:59;;;;;;;13.68;3.40;;;1.90;82.20;;;;;;6200270;28;20061;-87
2023/11/25 00:42:01;;;;;;;13.10;3.45;;;1.80;83.10;;;;;;6223452;28;20160;-86
2023/11/25 00:45:03;;;;;;;8.35;2.50;;;1.70;89.90;;;;;;6198335;28;20124;-85
2023/11/25 00:48:06;;;;;;;8.38;2.75;;;1.60;91.30;;;;;;6198403;28;20062;-86
2023/11/25 00:51:08;;;;;;;9.70;2.95;;;1.50;91.80;;;;;;6223551;28;20058;-85
2023/11/25 00:54:10;;;;;;;12.80;3.47;;;1.40;92.30;;;;;;6222106;28;20541;-86
2023/11/25 00:57:12;;;;;;;12.88;3.42;;;1.40;92.90;;;;;;6198505;28;20054;-85
2023/11/25 01:00:15;;;;;;;9.82;3.25;;;1.30;93.50;;;;;;6219812;28;20624;-85
2023/11/25 01:03:18;;;;;;;9.15;2.90;;;1.40;93.50;;;;;;6222064;28;20057;-85
2023/11/25 01:06:20;;;;;;;11.90;3.65;;;1.40;93.50;;;;;;6199218;28;20061;-85
2023/11/25 01:09:25;;;;;;;12.20;3.50;;;1.40;92.30;;;;;;6221427;28;20114;-86
2023/11/25 01:12:27;;;;;;;9.98;3.30;;;1.40;92.00;;;;;;6222263;28;20046;-86
2023/11/25 01:15:28;;;;;;;11.18;3.47;;;1.40;91.70;;;;;;6224865;28;20078;-86
2023/11/25 01:18:30;;;;;;;9.73;2.85;;;1.40;92.10;;;;;;6198448;28;20050;-86
2023/11/25 01:21:32;;;;;;;10.80;3.13;;;1.30;92.10;;;;;;6199053;28;20086;-86
2023/11/25 01:24:33;;;;;;;10.68;2.80;;;1.40;93.90;;;;;;6223801;28;20054;-86
2023/11/25 01:27:35;;;;;;;10.18;2.92;;;1.30;93.40;;;;;;6199077;28;20058;-85
2023/11/25 01:30:39;;;;;;;15.73;3.30;;;1.40;94.20;;;;;;6222811;28;20545;-86
2023/11/25 01:33:40;;;;;;;10.05;2.88;;;1.40;93.50;;;;;;6197204;28;20175;-86
2023/11/25 01:36:42;;;;;;;10.45;2.70;;;1.30;93.20;;;;;;6197044;28;20062;-86
2023/11/25 01:39:44;;;;;;;13.98;3.13;;;1.30;93.50;;;;;;6221497;28;20428;-87
2023/11/25 01:42:45;;;;;;;13.32;3.00;;;1.30;93.40;;;;;;6200591;28;20497;-87
2023/11/25 01:45:47;;;;;;;11.43;3.40;;;1.20;94.00;;;;;;6221305;28;20058;-88
2023/11/25 01:48:52;;;;;;;14.18;3.40;;;1.10;93.60;;;;;;6199228;28;20069;-88
2023/11/25 01:51:53;;;;;;;11.15;2.58;;;1.10;94.20;;;;;;6197668;28;20062;-87
2023/11/25 01:54:55;;;;;;;14.88;3.35;;;1.10;95.10;;;;;;6198153;28;20097;-88
2023/11/25 01:57:57;;;;;;;11.05;2.88;;;1.00;95.90;;;;;;6214207;28;20061;-87
2023/11/25 02:00:58;;;;;;;12.68;2.92;;;0.90;96.70;;;;;;6196567;28;20070;-88
2023/11/25 02:04:00;;;;;;;12.60;3.15;;;0.80;96.30;;;;;;6220568;28;20536;-86
2023/11/25 02:07:02;;;;;;;10.32;3.00;;;0.80;99.10;;;;;;6222245;28;20085;-87
2023/11/25 02:10:04;;;;;;;10.75;3.30;;;0.70;99.70;;;;;;6197087;28;20054;-87
2023/11/25 02:13:09;;;;;;;12.15;3.17;;;0.70;99.90;;;;;;6212317;28;20101;-87
2023/11/25 02:16:11;;;;;;;9.02;3.28;;;0.70;99.90;;;;;;6221255;28;20086;-85
2023/11/25 02:19:13;;;;;;;12.98;3.38;;;0.70;99.00;;;;;;6196225;28;20137;-86
2023/11/25 02:22:15;;;;;;;17.13;3.03;;;0.70;99.00;;;;;;6220174;28;20046;-87
2023/11/25 02:25:17;;;;;;;13.55;3.05;;;0.70;99.50;;;;;;6197418;28;20047;-87
2023/11/25 02:28:19;;;;;;;11.20;3.08;;;0.70;99.60;;;;;;6207722;28;20535;-87
2023/11/25 02:31:22;;;;;;;8.25;3.13;;;0.70;99.80;;;;;;6220523;28;20532;-86
2023/11/25 02:34:24;;;;;;;8.98;2.50;;;0.70;99.50;;;;;;6196169;28;20053;-86
2023/11/25 02:37:26;;;;;;;12.50;2.67;;;0.70;99.40;;;;;;6220222;28;20063;-86
2023/11/25 02:40:28;;;;;;;10.13;2.92;;;0.70;99.40;;;;;;6196952;28;20054;-86
2023/11/25 02:43:30;;;;;;;10.73;2.85;;;0.70;99.50;;;;;;6207323;28;20053;-86
2023/11/25 02:46:33;;;;;;;15.95;3.60;;;0.70;98.90;;;;;;6220555;28;20111;-87
2023/11/25 02:49:35;;;;;;;14.05;3.92;;;0.60;98.80;;;;;;6195920;28;20053;-85
2023/11/25 02:52:37;;;;;;;16.98;4.25;;;0.60;99.60;;;;;;6194868;28;20521;-86
2023/11/25 02:55:39;;;;;;;13.60;4.57;;;0.60;99.90;;;;;;6195432;28;20050;-87
2023/11/25 02:58:42;;;;;;;18.90;4.10;;;0.60;99.90;;;;;;6203986;28;20058;-86
2023/11/25 03:01:52;;;;;;;18.63;4.68;;;0.60;99.90;;;;;;6217571;28;20058;-86
2023/11/25 03:04:54;;;;;;;21.48;5.50;;;0.60;99.90;;;;;;6194191;28;20489;-86
2023/11/25 03:07:56;;;;;;;17.23;4.07;;;0.50;99.90;;;;;;6219858;28;20049;-85
2023/11/25 03:10:59;;;;;;;12.70;3.45;;;0.60;99.90;;;;;;6221690;28;20072;-86
2023/11/25 03:14:01;;;;;;;12.15;3.00;;;0.60;99.90;;;;;;6202398;28;20105;-86
2023/11/25 03:17:03;;;;;;;12.43;3.10;;;0.60;99.90;;;;;;6222045;28;20054;-85
2023/11/25 03:20:05;;;;;;;13.10;3.13;;;0.60;99.90;;;;;;6198395;28;20054;-84
2023/11/25 03:23:07;;;;;;;13.43;3.25;;;0.60;99.90;;;;;;6221815;28;20053;-87
2023/11/25 03:26:11;;;;;;;12.52;3.15;;;0.60;99.90;;;;;;6198102;28;20066;-85
2023/11/25 03:29:14;;;;;;;10.13;2.80;;;0.70;99.90;;;;;;6218407;28;20131;-84
2023/11/25 03:32:15;;;;;;;11.20;2.60;;;0.70;99.90;;;;;;6198465;28;20410;-84
2023/11/25 03:35:17;;;;;;;8.90;2.55;;;0.70;99.90;;;;;;6221664;28;20144;-85
2023/11/25 03:38:19;;;;;;;14.88;3.22;;;0.70;99.90;;;;;;6198469;28;20077;-85
2023/11/25 03:41:20;;;;;;;11.40;2.75;;;0.70;99.90;;;;;;6222167;28;20077;-83
2023/11/25 03:44:22;;;;;;;10.00;2.90;;;0.70;99.90;;;;;;6196832;28;20104;-87
2023/11/25 03:50:29;;;;;;;9.63;2.38;;;0.80;99.10;;;;;;6222392;28;20069;-87
2023/11/25 03:53:30;;;;;;;12.70;2.53;;;0.70;99.20;;;;;;6217426;28;20524;-87
2023/11/25 03:56:32;;;;;;;16.15;2.67;;;0.70;99.80;;;;;;6225545;28;20057;-87
2023/11/25 03:59:34;;;;;;;10.88;2.72;;;0.70;99.90;;;;;;6224879;28;20050;-86
2023/11/25 04:02:35;;;;;;;9.93;2.58;;;0.60;99.90;;;;;;6199682;28;20051;-87
2023/11/25 04:05:37;;;;;;;12.88;2.92;;;0.60;99.90;;;;;;6205936;28;20054;-87
2023/11/25 04:08:39;;;;;;;13.45;3.53;;;0.60;99.90;;;;;;6198875;28;20416;-86
2023/11/25 04:11:42;;;;;;;12.75;3.33;;;0.60;99.90;;;;;;6223081;28;20049;-86
2023/11/25 04:14:43;;;;;;;9.50;3.25;;;0.60;99.90;;;;;;6196600;28;20085;-86
2023/11/25 04:17:45;;;;;;;11.73;3.25;;;0.60;99.90;;;;;;6222852;28;20053;-86
2023/11/25 04:20:47;;;;;;;11.23;3.13;;;0.50;99.90;;;;;;6199838;28;20161;-86
2023/11/25 04:23:51;;;;;;;11.40;3.00;;;0.50;99.90;;;;;;6223156;28;20420;-86
2023/11/25 04:26:53;;;;;;;11.93;3.30;;;0.40;99.90;;;;;;6197921;28;20054;-86
2023/11/25 04:29:55;;;;;;;13.10;3.22;;;0.40;99.90;;;;;;6201083;28;20054;-86
2023/11/25 04:32:57;;;;;;;11.35;3.35;;;0.40;99.90;;;;;;6197993;28;20054;-86
2023/11/25 04:35:59;;;;;;;12.93;3.28;;;0.40;99.90;;;;;;6204941;28;20066;-86
2023/11/25 04:39:01;;;;;;;12.88;3.30;;;0.40;99.90;;;;;;6197221;28;20137;-86
2023/11/25 04:42:03;;;;;;;13.57;3.25;;;0.50;99.90;;;;;;6222164;28;20065;-86
2023/11/25 04:45:05;;;;;;;10.90;3.33;;;0.40;99.90;;;;;;6248304;22;20054;-79
2023/11/25 04:48:08;;;;;;;10.50;3.30;;;0.50;99.90;;;;;;6247955;28;20056;-80
2023/11/25 04:51:10;;;;;;;14.13;3.42;;;0.40;99.90;;;;;;6248025;28;20060;-80
2023/11/25 04:54:11;;;;;;;15.02;3.78;;;0.40;99.90;;;;;;6247771;28;20045;-80
2023/11/25 04:57:14;;;;;;;10.07;3.72;;;0.40;99.90;;;;;;6246929;28;20104;-80
2023/11/25 05:00:21;;;;;;;11.88;3.10;;;0.40;99.90;;;;;;6244420;28;20049;-80
2023/11/25 05:03:25;;;;;;;10.23;3.10;;;0.30;99.90;;;;;;6246926;28;20057;-80
2023/11/25 05:06:29;;;;;;;10.73;3.20;;;0.40;99.90;;;;;;6245187;28;20127;-80
2023/11/25 05:09:31;;;;;;;9.52;3.03;;;0.40;99.90;;;;;;6248479;28;20068;-80
2023/11/25 05:12:33;;;;;;;10.48;3.30;;;0.40;99.90;;;;;;6243503;28;20057;-82
2023/11/25 05:15:35;;;;;;;10.68;2.88;;;0.30;99.90;;;;;;6248931;28;20055;-80
2023/11/25 05:18:37;;;;;;;9.68;3.35;;;0.30;99.90;;;;;;6247023;28;20049;-80
2023/11/25 05:21:38;;;;;;;13.23;3.10;;;0.30;99.90;;;;;;6246401;28;20057;-79
2023/11/25 05:24:40;;;;;;;12.65;3.30;;;0.20;99.90;;;;;;6246322;28;20052;-80
2023/11/25 05:27:42;;;;;;;16.13;3.45;;;0.20;99.90;;;;;;6244724;28;20496;-79
2023/11/25 05:30:43;;;;;;;12.27;3.35;;;0.20;99.90;;;;;;6246261;28;20060;-79
2023/11/25 05:33:45;;;;;;;11.27;3.85;;;0.10;99.90;;;;;;6245910;28;20064;-78
2023/11/25 05:36:46;;;;;;;10.38;2.92;;;0.10;99.90;;;;;;6245991;28;20392;-80
2023/11/25 05:39:50;;;;;;;11.43;2.83;;;0.00;99.90;;;;;;6246715;28;20085;-81
2023/11/25 05:42:53;;;;;;;9.65;3.03;;;-0.10;99.90;;;;;;6243242;28;20057;-82
2023/11/25 05:45:58;;;;;;;9.63;3.35;;;-0.10;99.90;;;;;;6245875;28;20179;-81
2023/11/25 05:48:59;;;;;;;18.00;3.30;;;-0.20;99.90;;;;;;6246208;28;20054;-79
2023/11/25 05:52:01;;;;;;;12.13;3.50;;;-0.30;99.90;;;;;;6246613;28;20142;-79
2023/11/25 05:55:02;;;;;;;12.60;3.22;;;-0.40;99.90;;;;;;6246604;28;20068;-80
2023/11/25 05:58:04;;;;;;;12.27;3.53;;;-0.40;99.90;;;;;;6244003;28;20056;-79
2023/11/25 06:01:06;;;;;;;12.00;3.42;;;-0.40;99.90;;;;;;6245526;28;20515;-80
2023/11/25 06:04:07;;;;;;;14.43;4.00;;;-0.50;99.90;;;;;;6245256;28;20057;-80
2023/11/25 06:07:09;;;;;;;9.10;3.03;;;-0.50;99.90;;;;;;6243513;28;20061;-80
2023/11/25 06:10:11;;;;;;;12.63;3.95;;;-0.50;99.90;;;;;;6242621;28;20050;-80
2023/11/25 06:13:13;;;;;;;13.73;3.55;;;-0.40;99.90;;;;;;6241513;28;20049;-81
2023/11/25 06:16:14;;;;;;;11.60;3.22;;;-0.40;99.90;;;;;;6245035;28;20053;-80
2023/11/25 06:19:17;;;;;;;11.63;3.40;;;-0.50;99.90;;;;;;6244934;28;20057;-81
2023/11/25 06:22:21;;;;;;;13.73;3.88;;;-0.50;99.90;;;;;;6244330;28;20061;-82
2023/11/25 06:25:23;;;;;;;12.15;3.83;;;-0.50;99.90;;;;;;6244638;28;20415;-80
2023/11/25 06:28:24;;;;;;;14.25;3.67;;;-0.50;99.90;;;;;;6240736;28;20057;-81
2023/11/25 06:31:26;;;;;;;10.63;3.80;;;-0.50;99.90;;;;;;6244422;28;20202;-81
2023/11/25 06:34:28;;;;;;;13.57;3.95;;;-0.50;99.90;;;;;;6244403;28;20447;-81
2023/11/25 06:37:30;;;;;;;10.15;3.03;;;-0.60;99.90;;;;;;6244340;28;20060;-80
2023/11/25 06:40:34;;;;;;;10.95;3.70;;;-0.60;99.90;;;;;;6244754;28;20049;-80
2023/11/25 06:43:37;;;;;;;14.02;3.83;;;-0.60;99.90;;;;;;6240306;28;20079;-81
2023/11/25 06:46:39;;;;;;;13.35;3.83;;;-0.60;99.90;;;;;;6244220;28;20520;-81
2023/11/25 06:49:41;;;;;;;11.70;3.92;;;-0.60;99.90;;;;;;6243927;28;20053;-81
2023/11/25 06:52:42;;;;;;;13.75;3.78;;;-0.50;99.90;;;;;;6244340;28;20046;-81
2023/11/25 06:55:45;;;;;;;12.63;3.35;;;-0.50;99.90;;;;;;6243714;28;20075;-81
2023/11/25 06:58:47;;;;;;;17.48;3.90;;;-0.50;99.90;;;;;;6242213;28;20057;-81
2023/11/25 07:01:49;;;;;;;11.43;3.58;;;-0.50;99.90;;;;;;6244204;28;20064;-81
2023/11/25 07:04:50;;;;;;;15.65;4.05;;;-0.50;99.90;;;;;;6243943;28;20056;-81
2023/11/25 07:07:52;;;;;;;12.75;4.20;;;-0.60;99.90;;;;;;6255327;28;20543;-80
2023/11/25 07:10:54;;;;;;;15.55;4.13;;;-0.60;99.90;;;;;;6244938;28;20045;-80
2023/11/25 07:13:56;;;;;;;11.02;3.70;;;-0.50;99.90;;;;;;6238134;28;20603;-81
2023/11/25 07:16:58;;;;;;;10.60;3.55;;;-0.60;99.90;;;;;;6243395;28;20132;-80
2023/11/25 07:19:59;;;;;;;11.52;3.92;;;-0.60;99.90;;;;;;6243343;28;20060;-80
2023/11/25 07:23:01;;;;;;;11.77;4.28;;;-0.60;99.90;;;;;;6244117;28;20069;-81
2023/11/25 07:26:03;;;;;;;12.48;3.88;;;-0.60;99.90;;;;;;6243496;28;20053;-81
2023/11/25 07:29:04;;;;;;;14.73;4.63;;;-0.70;99.90;;;;;;6240416;28;20207;-81
2023/11/25 07:32:06;;;;;;;11.07;3.55;;;-0.70;99.90;;;;;;6243919;28;20049;-80
2023/11/25 07:35:08;;;;;;;10.07;3.55;;;-0.60;99.90;;;;;;6243478;28;20060;-81
2023/11/25 07:38:10;;;;;;;13.00;4.40;;;-0.60;99.90;;;;;;6225845;28;20054;-81
2023/11/25 07:41:11;;;;;;;12.90;3.80;;;-0.60;99.90;;;;;;6242721;28;20083;-80
2023/11/25 07:44:13;;;;;;;12.30;4.07;;;-0.70;99.90;;;;;;6238675;28;20148;-80
2023/11/25 07:47:15;;;;;;;10.43;3.70;;;-0.60;99.90;;;;;;6225481;28;20049;-81
2023/11/25 07:50:17;;;;;;;16.75;4.95;;;-0.60;99.90;;;;;;6242981;28;20060;-81
2023/11/25 07:53:22;;;;;;;14.57;4.47;;;-0.60;99.90;;;;;;6242754;28;20495;-80
2023/11/25 07:56:24;;;;;;;17.13;4.82;;;-0.60;99.90;;;;;;6242922;28;20565;-82
2023/11/25 07:59:26;;;;;;;12.82;4.53;;;-0.60;99.90;;;;;;6241793;28;20122;-82
2023/11/25 08:02:28;;;;;;;14.20;4.57;;;-0.70;99.90;;;;;;6243490;28;20049;-81
2023/11/25 08:05:29;;;;;;;14.27;4.45;;;-0.70;99.90;;;;;;6243716;28;20144;-83
2023/11/25 08:08:32;;;;;;;14.32;4.13;;;-0.70;99.90;;;;;;6242532;28;20054;-84
2023/11/25 08:11:35;;;;;;;11.90;4.00;;;-0.60;99.90;;;;;;6242880;28;20582;-83
2023/11/25 08:14:36;;;;;;;11.38;3.65;;;-0.60;99.90;;;;;;6238989;28;20061;-83
2023/11/25 08:17:38;;;;;;;15.13;4.68;;;-0.60;99.90;;;;;;6242658;28;20461;-81
2023/11/25 08:20:40;;;;;;;15.15;4.28;;;-0.60;99.90;;;;;;6242901;28;20130;-81
2023/11/25 08:23:42;;;;;;;13.43;4.45;;;-0.50;99.90;;;;;;6242408;28;20504;-81
2023/11/25 08:26:43;;;;;;;17.75;4.63;;;-0.30;99.90;;;;;;6224672;28;20053;-81
2023/11/25 08:29:45;;;;;;;10.93;4.07;;;-0.30;99.90;;;;;;6240986;28;20683;-81
2023/11/25 08:32:47;;;;;;;14.32;4.15;;;-0.20;99.90;;;;;;6242760;28;20077;-80
2023/11/25 08:35:49;;;;;;;13.20;4.20;;;-0.10;99.90;;;;;;6247184;28;20060;-80
2023/11/25 08:38:51;;;;;;;12.00;4.20;;;-0.10;99.90;;;;;;6246438;28;20049;-80
2023/11/25 08:41:53;;;;;;;19.52;4.50;;;0.00;99.90;;;;;;6246921;28;20049;-81
2023/11/25 08:44:54;;;;;;;12.23;4.07;;;0.10;99.90;;;;;;6243627;28;20065;-80
2023/11/25 08:47:58;;;;;;;13.05;3.92;;;0.20;99.90;;;;;;6246494;28;20531;-80
2023/11/25 08:51:00;;;;;;;12.00;4.47;;;0.20;99.90;;;;;;6228852;28;20068;-81
2023/11/25 08:54:02;;;;;;;15.73;4.45;;;0.40;99.90;;;;;;6246262;28;20060;-81
2023/11/25 08:57:07;;;;;;;12.07;3.85;;;0.40;99.90;;;;;;6247175;28;20045;-80
2023/11/25 09:00:18;;;;;;;11.00;4.35;;;0.50;99.90;;;;;;6245821;28;20053;-82
2023/11/25 09:03:20;;;;;;;19.85;4.20;;;0.60;99.90;;;;;;6221812;28;20545;-81
2023/11/25 09:06:23;;;;;;;17.73;4.75;;;0.70;99.90;;;;;;6245730;28;20081;-81
2023/11/25 09:09:26;;;;;;;12.38;4.05;;;0.90;99.90;;;;;;6271079;28;20064;-81
2023/11/25 09:12:28;;;;;;;17.23;4.00;;;1.00;99.90;;;;;;6243661;28;20049;-81
2023/11/25 09:15:29;;;;;;;14.68;4.03;;;1.10;99.90;;;;;;6228258;28;20050;-84
2023/11/25 09:18:39;;;;;;;14.63;4.50;;;1.20;99.90;;;;;;6222724;28;20054;-83
2023/11/25 09:21:41;;;;;;;10.45;3.83;;;1.40;99.90;;;;;;6245342;28;20052;-81
2023/11/25 09:24:44;;;;;;;10.98;3.80;;;2.40;99.90;;;;;;6245684;28;20067;-82
2023/11/25 09:27:45;;;;;;;7.93;3.10;;;3.40;98.60;;;;;;6243077;28;20398;-81
2023/11/25 09:30:47;;;;;;;9.80;2.95;;;4.20;85.90;;;;;;6246732;28;20053;-81
2023/11/25 09:33:48;;;;;;;6.25;2.80;;;5.00;85.40;;;;;;6245924;28;20053;-83
2023/11/25 09:36:50;;;;;;;7.50;2.90;;;5.90;75.20;;;;;;6227521;28;20136;-82
2023/11/25 09:39:52;;;;;;;17.13;3.10;;;6.40;8.40;;;;;;6246039;28;20479;-82
2023/11/25 09:42:53;;;;;;;9.15;2.60;;;7.00;1.00;;;;;;6243705;28;20057;-85
2023/11/25 09:45:55;;;;;;;8.48;2.63;;;7.40;1.00;;;;;;6228178;28;20053;-84
2023/11/25 09:48:57;;;;;;;8.75;2.42;;;7.80;1.00;;;;;;6245530;28;20053;-85
2023/11/25 09:51:58;;;;;;;6.88;2.55;;;8.10;1.00;;;;;;6245359;28;20061;-84
2023/11/25 09:55:00;;;;;;;9.43;2.70;;;8.40;1.00;;;;;;6228352;28;20053;-83
2023/11/25 09:58:01;;;;;;;7.63;2.70;;;8.60;1.00;;;;;;6225001;28;20056;-84
2023/11/25 10:01:05;;;;;;;12.35;3.72;;;8.70;1.00;;;;;;6228552;28;20508;-85
2023/11/25 10:04:07;;;;;;;7.97;2.60;;;9.10;1.00;;;;;;6246880;28;20056;-86
2023/11/25 10:07:09;;;;;;;9.43;2.75;;;9.60;1.00;;;;;;6252727;28;20161;-84
2023/11/25 10:10:13;;;;;;;9.80;2.80;;;10.20;1.00;;;;;;6247177;28;20057;-83
2023/11/25 10:13:15;;;;;;;7.53;2.35;;;10.20;1.00;;;;;;6254789;22;20049;-90
2023/11/25 10:16:16;;;;;;;9.55;2.80;;;10.10;1.00;;;;;;6257686;28;20507;-90
2023/11/25 10:19:19;;;;;;;8.13;3.13;;;10.30;1.00;;;;;;6248237;28;20114;-87
2023/11/25 10:22:20;;;;;;;7.40;2.67;;;10.10;1.00;;;;;;6254612;28;20064;-91
2023/11/25 10:25:22;;;;;;;11.25;2.80;;;10.10;1.00;;;;;;6272452;28;20065;-90
2023/11/25 10:28:25;;;;;;;6.53;2.50;;;10.30;1.00;;;;;;6240193;28;20060;-89
2023/11/25 10:31:30;;;;;;;8.98;3.20;;;10.40;1.00;;;;;;6256683;28;20061;-90
2023/11/25 10:34:32;;;;;;;7.05;2.90;;;10.70;1.00;;;;;;6248320;28;20188;-89
2023/11/25 10:37:34;;;;;;;9.38;2.88;;;10.60;1.00;;;;;;6272657;28;20080;-89
2023/11/25 10:40:36;;;;;;;9.93;3.20;;;11.00;1.00;;;;;;6274930;28;20095;-87
2023/11/25 10:43:38;;;;;;;9.85;2.80;;;10.90;1.00;;;;;;6243496;28;20499;-93
2023/11/25 10:46:40;;;;;;;7.10;2.90;;;10.90;1.00;;;;;;6260317;28;20061;-93
2023/11/25 10:49:42;;;;;;;9.15;3.20;;;11.00;1.00;;;;;;6232556;28;20065;-93
2023/11/25 10:52:44;;;;;;;9.77;3.08;;;11.00;1.00;;;;;;6257262;28;20064;-89
2023/11/25 10:55:46;;;;;;;7.65;2.70;;;11.20;1.00;;;;;;6260627;28;20519;-91
2023/11/25 10:58:48;;;;;;;7.30;2.70;;;11.50;1.00;;;;;;6248536;28;20068;-92
2023/11/25 11:01:50;;;;;;;7.43;2.78;;;11.50;1.00;;;;;;6279715;28;20319;-89
2023/11/25 11:04:52;;;;;;;9.00;2.60;;;11.30;1.00;;;;;;6256276;28;20271;-89
2023/11/25 11:07:54;;;;;;;7.38;2.78;;;11.70;1.00;;;;;;6268034;28;20108;-89
2023/11/25 11:10:56;;;;;;;6.18;2.47;;;11.90;1.00;;;;;;6289113;28;20065;-91
2023/11/25 11:13:59;;;;;;;6.90;2.40;;;11.70;1.00;;;;;;6278860;28;20052;-89
2023/11/25 11:17:00;;;;;;;9.68;2.22;;;11.40;1.00;;;;;;6268060;28;20068;-93
2023/11/25 11:20:02;;;;;;;8.95;3.05;;;11.40;1.00;;;;;;6274925;28;20053;-90
2023/11/25 11:23:04;;;;;;;7.07;2.28;;;11.30;1.00;;;;;;6251382;28;20057;-89
2023/11/25 11:26:07;;;;;;;13.07;3.22;;;11.40;1.00;;;;;;6279203;28;20055;-91
2023/11/25 11:29:09;;;;;;;8.65;2.42;;;11.40;1.00;;;;;;6228679;28;20053;-92
2023/11/25 11:32:11;;;;;;;7.65;2.45;;;11.50;1.00;;;;;;6272205;28;20041;-92
2023/11/25 11:35:13;;;;;;;6.82;2.35;;;11.50;1.00;;;;;;6231127;28;20060;-92
2023/11/25 11:38:15;;;;;;;6.63;2.70;;;11.60;1.00;;;;;;6255892;28;20049;-91
2023/11/25 11:41:17;;;;;;;5.70;2.20;;;11.50;1.00;;;;;;6258156;28;20072;-93
2023/11/25 11:44:19;;;;;;;8.30;2.50;;;11.20;1.00;;;;;;6265615;28;20049;-89
2023/11/25 11:47:21;;;;;;;10.63;2.40;;;11.20;1.00;;;;;;6270804;28;20527;-88
2023/11/25 11:50:23;;;;;;;8.70;2.45;;;11.40;1.00;;;;;;6273128;28;20068;-93
2023/11/25 11:53:25;;;;;;;10.20;2.33;;;11.60;1.00;;;;;;6262786;28;20053;-90
2023/11/25 11:56:29;;;;;;;11.10;2.50;;;11.70;1.00;;;;;;6265087;28;20049;-90
2023/11/25 11:59:31;;;;;;;10.82;2.53;;;11.70;1.00;;;;;;6251369;28;20045;-91
2023/11/25 12:02:34;;;;;;;9.57;2.67;;;11.60;1.00;;;;;;6228583;28;20135;-92
2023/11/25 12:05:36;;;;;;;8.50;2.45;;;11.70;1.00;;;;;;6262070;28;20139;-95
2023/11/25 12:08:38;;;;;;;13.90;2.85;;;11.60;1.00;;;;;;6274546;28;20049;-92
2023/11/25 12:11:43;;;;;;;9.88;2.55;;;11.50;1.00;;;;;;6253019;28;20060;-92
2023/11/25 12:14:46;;;;;;;10.48;3.10;;;11.80;1.00;;;;;;6252967;28;20064;-91
2023/11/25 12:17:48;;;;;;;13.20;2.80;;;11.70;1.00;;;;;;6249752;28;20512;-90
2023/11/25 12:20:50;;;;;;;8.25;2.38;;;11.70;1.00;;;;;;6274325;28;20073;-90
2023/11/25 12:23:52;;;;;;;7.90;2.72;;;11.40;1.00;;;;;;6250029;28;20053;-90
2023/11/25 12:26:54;;;;;;;8.25;2.33;;;11.20;1.00;;;;;;6256734;28;20052;-92
2023/11/25 12:29:56;;;;;;;7.57;2.40;;;11.10;1.00;;;;;;6275306;28;20048;-92
2023/11/25 12:32:57;;;;;;;8.73;2.33;;;11.50;1.00;;;;;;6250123;28;20057;-90
2023/11/25 12:35:59;;;;;;;9.07;2.97;;;11.50;1.00;;;;;;6256203;28;20071;-91
2023/11/25 12:39:03;;;;;;;9.10;2.20;;;11.60;1.00;;;;;;6275708;28;20091;-91
2023/11/25 12:42:05;;;;;;;10.60;2.80;;;11.70;1.00;;;;;;6232871;28;20080;-91
2023/11/25 12:45:07;;;;;;;7.38;2.42;;;11.50;1.00;;;;;;6274607;28;20072;-92
2023/11/25 12:48:09;;;;;;;7.93;1.95;;;11.40;1.00;;;;;;6234216;28;20069;-93
2023/11/25 12:51:14;;;;;;;6.13;2.00;;;11.40;1.00;;;;;;6276593;28;20061;-92
2023/11/25 12:54:16;;;;;;;7.47;2.00;;;11.50;1.00;;;;;;6234566;28;20119;-89
2023/11/25 12:57:18;;;;;;;7.40;1.52;;;11.60;1.00;;;;;;6281445;28;20407;-91
2023/11/25 13:00:20;;;;;;;5.65;1.50;;;11.30;1.00;;;;;;6252416;28;20064;-90
2023/11/25 13:03:21;;;;;;;4.10;1.05;;;11.20;1.00;;;;;;6235219;28;20053;-91
2023/11/25 13:06:24;;;;;;;5.90;1.70;;;11.10;1.00;;;;;;6276914;28;20063;-94
2023/11/25 13:09:27;;;;;;;7.78;1.60;;;11.20;1.00;;;;;;6234857;28;20057;-93
2023/11/25 13:12:29;;;;;;;4.05;1.23;;;11.40;1.00;;;;;;6274360;28;20068;-88
2023/11/25 13:15:31;;;;;;;6.88;1.85;;;11.60;1.00;;;;;;6279418;28;20061;-92
2023/11/25 13:18:33;;;;;;;6.60;2.10;;;11.70;1.00;;;;;;6236708;28;20073;-94
2023/11/25 13:21:35;;;;;;;8.52;1.70;;;11.50;1.00;;;;;;6258677;28;20171;-93
2023/11/25 13:24:37;;;;;;;6.15;1.50;;;11.20;1.00;;;;;;6284724;28;20059;-95
2023/11/25 13:27:39;;;;;;;3.58;1.30;;;11.10;1.00;;;;;;6272658;28;20073;-95
2023/11/25 13:30:41;;;;;;;4.93;1.55;;;11.20;1.00;;;;;;6293288;28;20056;-94
2023/11/25 13:33:43;;;;;;;7.32;1.80;;;11.10;1.00;;;;;;6266882;28;20060;-94
2023/11/25 13:36:45;;;;;;;10.05;2.22;;;11.10;1.00;;;;;;6239173;28;20053;-91
2023/11/25 13:39:48;;;;;;;7.47;2.40;;;11.10;1.00;;;;;;6257892;28;20492;-88
2023/11/25 13:42:49;;;;;;;6.25;2.00;;;11.10;1.00;;;;;;6250233;28;20053;-92
2023/11/25 13:45:51;;;;;;;8.32;1.80;;;11.20;1.00;;;;;;6236385;28;20057;-92
2023/11/25 13:48:53;;;;;;;7.60;2.10;;;11.10;1.00;;;;;;6284321;28;20083;-92
2023/11/25 13:51:56;;;;;;;10.88;2.40;;;10.90;1.00;;;;;;6261034;28;20068;-92
2023/11/25 13:54:57;;;;;;;6.78;1.90;;;10.40;1.00;;;;;;6275085;28;20045;-92
2023/11/25 13:57:59;;;;;;;7.45;1.95;;;9.70;1.00;;;;;;6247234;28;20135;-90
2023/11/25 14:01:01;;;;;;;6.45;1.80;;;9.10;1.00;;;;;;6249404;28;20120;-91
2023/11/25 14:04:03;;;;;;;10.35;2.20;;;8.60;1.00;;;;;;6273694;28;20065;-91
2023/11/25 14:07:05;;;;;;;5.97;2.03;;;8.20;1.00;;;;;;6232282;28;20516;-91
2023/11/25 14:10:08;;;;;;;9.25;2.15;;;7.90;1.00;;;;;;6258562;28;20060;-91
2023/11/25 14:13:10;;;;;;;8.93;1.70;;;7.70;1.00;;;;;;6271637;28;20491;-90
2023/11/25 14:16:12;;;;;;;7.60;1.92;;;7.50;1.00;;;;;;6234718;28;20057;-92
2023/11/25 14:19:14;;;;;;;12.32;2.42;;;7.30;1.00;;;;;;6254717;28;20446;-91
2023/11/25 14:22:18;;;;;;;11.75;2.33;;;7.30;1.00;;;;;;6255451;28;20061;-92
2023/11/25 14:25:20;;;;;;;8.85;2.28;;;7.10;1.00;;;;;;6248637;28;20057;-91
2023/11/25 14:28:22;;;;;;;16.92;5.55;;;7.00;1.00;;;;;;6253249;28;20064;-90
2023/11/25 14:31:23;;;;;;;8.65;2.38;;;6.90;1.00;;;;;;6231567;28;20057;-90
2023/11/25 14:34:25;;;;;;;8.80;2.00;;;6.80;1.00;;;;;;6256009;28;20049;-92
2023/11/25 14:37:27;;;;;;;7.25;2.08;;;6.80;1.00;;;;;;6248057;28;20068;-93
2023/11/25 14:40:31;;;;;;;9.27;2.00;;;6.80;1.00;;;;;;6272563;28;20057;-92
2023/11/25 14:43:33;;;;;;;8.88;2.20;;;6.80;1.00;;;;;;6241415;28;20077;-91
2023/11/25 14:46:35;;;;;;;9.27;2.45;;;6.70;1.00;;;;;;6253315;28;20053;-89
2023/11/25 14:49:37;;;;;;;10.85;2.50;;;6.60;1.00;;;;;;6246720;28;20049;-89
2023/11/25 14:52:39;;;;;;;7.07;1.80;;;6.60;1.00;;;;;;6252148;28;20436;-88
2023/11/25 14:55:42;;;;;;;11.13;2.10;;;6.50;1.00;;;;;;6253333;28;20056;-90
2023/11/25 14:58:44;;;;;;;7.80;1.92;;;6.40;1.00;;;;;;6236743;28;20045;-88
2023/11/25 15:01:46;;;;;;;13.93;2.28;;;6.40;1.00;;;;;;6271578;28;20057;-86
2023/11/25 15:04:47;;;;;;;10.50;2.15;;;6.30;1.00;;;;;;6247261;28;20049;-90
2023/11/25 15:07:49;;;;;;;11.18;2.20;;;6.20;1.00;;;;;;6270169;28;20040;-87
2023/11/25 15:10:51;;;;;;;8.15;2.20;;;6.20;1.00;;;;;;6227255;28;20069;-86
2023/11/25 15:13:53;;;;;;;9.02;2.72;;;6.20;1.00;;;;;;6262891;28;20274;-84
2023/11/25 15:16:55;;;;;;;12.90;2.70;;;6.00;1.00;;;;;;6244608;28;20207;-85
2023/11/25 15:19:56;;;;;;;7.38;2.33;;;5.90;1.00;;;;;;6253236;28;20125;-90
2023/11/25 15:22:59;;;;;;;5.88;1.98;;;5.90;1.00;;;;;;6269785;28;20513;-91
2023/11/25 15:26:01;;;;;;;9.07;2.30;;;5.80;1.00;;;;;;6228076;28;20068;-89
2023/11/25 15:29:03;;;;;;;8.77;2.53;;;5.70;1.00;;;;;;6264417;28;20057;-90
2023/11/25 15:32:05;;;;;;;7.38;1.98;;;5.60;1.00;;;;;;6246481;28;20140;-89
2023/11/25 15:35:07;;;;;;;10.98;2.10;;;5.60;1.00;;;;;;6256696;28;20049;-89
2023/11/25 15:38:09;;;;;;;12.35;2.53;;;5.50;1.00;;;;;;6245583;28;20111;-84
2023/11/25 15:41:12;;;;;;;8.48;2.42;;;5.40;1.00;;;;;;6268975;28;20456;-87
2023/11/25 15:44:15;;;;;;;11.35;2.75;;;5.30;1.00;;;;;;6231038;28;20497;-88
2023/11/25 15:47:16;;;;;;;14.45;4.05;;;5.30;1.00;;;;;;6274227;28;20424;-88
2023/11/25 15:50:18;;;;;;;9.80;3.40;;;5.20;1.00;;;;;;6253027;28;20053;-90
2023/11/25 15:53:20;;;;;;;15.27;3.70;;;5.10;1.00;;;;;;6257070;28;20409;-89
2023/11/25 15:56:22;;;;;;;10.07;3.58;;;4.90;1.00;;;;;;6274476;28;20052;-89